<?xml version="1.0" encoding="UTF-8" standalone="no" ?>
<gpx xmlns="http://www.topografix.com/GPX/1/1" xmlns:xsi="http://www.w3.org/2001/XMLSchema-instance" xsi:schemaLocation="http://www.topografix.com/GPX/1/1 http://www.topografix.com/GPX/1/1/gpx.xsd" version="1.1" creator="VisuGPX - https://www.visugpx.com">
  <metadata>
    <name>secteur Saverne - Dabo - Petite Pierre</name>
  </metadata>
  <trk>
    <name><![CDATA[secteur Saverne - Dabo - Petite Pierre_22]]></name>
    <trkseg>
      <trkpt lat="48.73866" lon="7.26167">
        <ele>272.07</ele>
        <time>2020-05-21T17:10:15.000Z</time>
      </trkpt>
      <trkpt lat="48.73866" lon="7.26167">
        <ele>272.07</ele>
        <time>2020-05-21T17:10:15.000Z</time>
      </trkpt>
      <trkpt lat="48.73866" lon="7.26167">
        <ele>272.07</ele>
        <time>2020-05-21T17:10:15.000Z</time>
      </trkpt>
      <trkpt lat="48.73866" lon="7.26167">
        <ele>272.07</ele>
        <time>2020-05-21T17:10:15.000Z</time>
      </trkpt>
      <trkpt lat="48.73866" lon="7.26167">
        <ele>272.07</ele>
        <time>2020-05-21T17:10:15.000Z</time>
      </trkpt>
      <trkpt lat="48.73866" lon="7.26167">
        <ele>272.07</ele>
        <time>2020-05-21T17:10:15.000Z</time>
      </trkpt>
      <trkpt lat="48.73866" lon="7.26167">
        <ele>272.07</ele>
        <time>2020-05-21T17:10:15.000Z</time>
      </trkpt>
      <trkpt lat="48.73863" lon="7.26161">
        <ele>272.65</ele>
        <time>2020-05-21T17:10:17.000Z</time>
      </trkpt>
      <trkpt lat="48.7386" lon="7.26155">
        <ele>274.07</ele>
        <time>2020-05-21T17:10:19.000Z</time>
      </trkpt>
      <trkpt lat="48.73858" lon="7.26147">
        <ele>274.28</ele>
        <time>2020-05-21T17:10:22.000Z</time>
      </trkpt>
      <trkpt lat="48.73856" lon="7.2614">
        <ele>273.33</ele>
        <time>2020-05-21T17:10:24.000Z</time>
      </trkpt>
      <trkpt lat="48.73852" lon="7.26132">
        <ele>271.73</ele>
        <time>2020-05-21T17:10:27.000Z</time>
      </trkpt>
      <trkpt lat="48.7385" lon="7.26127">
        <ele>271.94</ele>
        <time>2020-05-21T17:10:29.000Z</time>
      </trkpt>
      <trkpt lat="48.73846" lon="7.2612">
        <ele>271.25</ele>
        <time>2020-05-21T17:10:32.000Z</time>
      </trkpt>
      <trkpt lat="48.73843" lon="7.26112">
        <ele>273.45</ele>
        <time>2020-05-21T17:10:35.000Z</time>
      </trkpt>
      <trkpt lat="48.73839" lon="7.26104">
        <ele>272.98</ele>
        <time>2020-05-21T17:10:38.000Z</time>
      </trkpt>
      <trkpt lat="48.73836" lon="7.26099">
        <ele>273.24</ele>
        <time>2020-05-21T17:10:40.000Z</time>
      </trkpt>
      <trkpt lat="48.73833" lon="7.26092">
        <ele>274.27</ele>
        <time>2020-05-21T17:10:43.000Z</time>
      </trkpt>
      <trkpt lat="48.73829" lon="7.26085">
        <ele>274.16</ele>
        <time>2020-05-21T17:10:46.000Z</time>
      </trkpt>
      <trkpt lat="48.73826" lon="7.26076">
        <ele>272.66</ele>
        <time>2020-05-21T17:10:49.000Z</time>
      </trkpt>
      <trkpt lat="48.73822" lon="7.26068">
        <ele>275.44</ele>
        <time>2020-05-21T17:10:52.000Z</time>
      </trkpt>
      <trkpt lat="48.73818" lon="7.2606">
        <ele>277.25</ele>
        <time>2020-05-21T17:10:55.000Z</time>
      </trkpt>
      <trkpt lat="48.73814" lon="7.26056">
        <ele>276.15</ele>
        <time>2020-05-21T17:10:57.000Z</time>
      </trkpt>
      <trkpt lat="48.73812" lon="7.26049">
        <ele>276.46</ele>
        <time>2020-05-21T17:11:00.000Z</time>
      </trkpt>
      <trkpt lat="48.73808" lon="7.26044">
        <ele>277.02</ele>
        <time>2020-05-21T17:11:02.000Z</time>
      </trkpt>
      <trkpt lat="48.73805" lon="7.26038">
        <ele>276.99</ele>
        <time>2020-05-21T17:11:04.000Z</time>
      </trkpt>
      <trkpt lat="48.73802" lon="7.26033">
        <ele>278.13</ele>
        <time>2020-05-21T17:11:06.000Z</time>
      </trkpt>
      <trkpt lat="48.73797" lon="7.26028">
        <ele>278.55</ele>
        <time>2020-05-21T17:11:09.000Z</time>
      </trkpt>
      <trkpt lat="48.73791" lon="7.26022">
        <ele>281.2</ele>
        <time>2020-05-21T17:11:12.000Z</time>
      </trkpt>
      <trkpt lat="48.73788" lon="7.26017">
        <ele>282.84</ele>
        <time>2020-05-21T17:11:14.000Z</time>
      </trkpt>
      <trkpt lat="48.73784" lon="7.26013">
        <ele>284.45</ele>
        <time>2020-05-21T17:11:16.000Z</time>
      </trkpt>
      <trkpt lat="48.7378" lon="7.26007">
        <ele>284.46</ele>
        <time>2020-05-21T17:11:19.000Z</time>
      </trkpt>
      <trkpt lat="48.73777" lon="7.26001">
        <ele>285.05</ele>
        <time>2020-05-21T17:11:22.000Z</time>
      </trkpt>
      <trkpt lat="48.73773" lon="7.25997">
        <ele>286.59</ele>
        <time>2020-05-21T17:11:24.000Z</time>
      </trkpt>
      <trkpt lat="48.73768" lon="7.25992">
        <ele>287.66</ele>
        <time>2020-05-21T17:11:27.000Z</time>
      </trkpt>
      <trkpt lat="48.73762" lon="7.25988">
        <ele>286.41</ele>
        <time>2020-05-21T17:11:30.000Z</time>
      </trkpt>
      <trkpt lat="48.73757" lon="7.25984">
        <ele>286.53</ele>
        <time>2020-05-21T17:11:33.000Z</time>
      </trkpt>
      <trkpt lat="48.73752" lon="7.25977">
        <ele>286.12</ele>
        <time>2020-05-21T17:11:36.000Z</time>
      </trkpt>
      <trkpt lat="48.73748" lon="7.25972">
        <ele>283.9</ele>
        <time>2020-05-21T17:11:38.000Z</time>
      </trkpt>
      <trkpt lat="48.73744" lon="7.25966">
        <ele>280.46</ele>
        <time>2020-05-21T17:11:40.000Z</time>
      </trkpt>
      <trkpt lat="48.73741" lon="7.2596">
        <ele>282.26</ele>
        <time>2020-05-21T17:11:42.000Z</time>
      </trkpt>
      <trkpt lat="48.73736" lon="7.25954">
        <ele>284.05</ele>
        <time>2020-05-21T17:11:45.000Z</time>
      </trkpt>
      <trkpt lat="48.73731" lon="7.2595">
        <ele>287.85</ele>
        <time>2020-05-21T17:11:48.000Z</time>
      </trkpt>
      <trkpt lat="48.73728" lon="7.25943">
        <ele>287.67</ele>
        <time>2020-05-21T17:11:51.000Z</time>
      </trkpt>
      <trkpt lat="48.73723" lon="7.25935">
        <ele>287.76</ele>
        <time>2020-05-21T17:11:54.000Z</time>
      </trkpt>
      <trkpt lat="48.73719" lon="7.25928">
        <ele>290.67</ele>
        <time>2020-05-21T17:11:57.000Z</time>
      </trkpt>
      <trkpt lat="48.73715" lon="7.25922">
        <ele>290.67</ele>
        <time>2020-05-21T17:12:00.000Z</time>
      </trkpt>
      <trkpt lat="48.73711" lon="7.25915">
        <ele>291.69</ele>
        <time>2020-05-21T17:12:03.000Z</time>
      </trkpt>
      <trkpt lat="48.73706" lon="7.25907">
        <ele>293.73</ele>
        <time>2020-05-21T17:12:06.000Z</time>
      </trkpt>
      <trkpt lat="48.73704" lon="7.25901">
        <ele>294.88</ele>
        <time>2020-05-21T17:12:08.000Z</time>
      </trkpt>
      <trkpt lat="48.737" lon="7.25895">
        <ele>295.26</ele>
        <time>2020-05-21T17:12:10.000Z</time>
      </trkpt>
      <trkpt lat="48.73696" lon="7.25889">
        <ele>297.79</ele>
        <time>2020-05-21T17:12:13.000Z</time>
      </trkpt>
      <trkpt lat="48.73693" lon="7.25884">
        <ele>295.84</ele>
        <time>2020-05-21T17:12:15.000Z</time>
      </trkpt>
      <trkpt lat="48.7369" lon="7.25878">
        <ele>296.68</ele>
        <time>2020-05-21T17:12:18.000Z</time>
      </trkpt>
      <trkpt lat="48.73686" lon="7.2587">
        <ele>298.18</ele>
        <time>2020-05-21T17:12:21.000Z</time>
      </trkpt>
      <trkpt lat="48.73682" lon="7.25862">
        <ele>299.44</ele>
        <time>2020-05-21T17:12:24.000Z</time>
      </trkpt>
      <trkpt lat="48.7368" lon="7.25855">
        <ele>299.76</ele>
        <time>2020-05-21T17:12:26.000Z</time>
      </trkpt>
      <trkpt lat="48.73679" lon="7.25848">
        <ele>299.85</ele>
        <time>2020-05-21T17:12:28.000Z</time>
      </trkpt>
      <trkpt lat="48.73677" lon="7.25842">
        <ele>299.69</ele>
        <time>2020-05-21T17:12:30.000Z</time>
      </trkpt>
      <trkpt lat="48.73675" lon="7.25832">
        <ele>297.76</ele>
        <time>2020-05-21T17:12:33.000Z</time>
      </trkpt>
      <trkpt lat="48.73674" lon="7.25825">
        <ele>296.28</ele>
        <time>2020-05-21T17:12:35.000Z</time>
      </trkpt>
      <trkpt lat="48.73672" lon="7.25817">
        <ele>296.99</ele>
        <time>2020-05-21T17:12:38.000Z</time>
      </trkpt>
      <trkpt lat="48.7367" lon="7.25811">
        <ele>298.91</ele>
        <time>2020-05-21T17:12:40.000Z</time>
      </trkpt>
      <trkpt lat="48.7367" lon="7.25802">
        <ele>297.96</ele>
        <time>2020-05-21T17:12:43.000Z</time>
      </trkpt>
      <trkpt lat="48.73666" lon="7.25764">
        <ele>297.33</ele>
        <time>2020-05-21T17:12:51.000Z</time>
      </trkpt>
      <trkpt lat="48.73665" lon="7.25752">
        <ele>296.6</ele>
        <time>2020-05-21T17:12:53.000Z</time>
      </trkpt>
      <trkpt lat="48.73664" lon="7.2574">
        <ele>296.52</ele>
        <time>2020-05-21T17:12:55.000Z</time>
      </trkpt>
      <trkpt lat="48.73664" lon="7.25727">
        <ele>297.65</ele>
        <time>2020-05-21T17:12:57.000Z</time>
      </trkpt>
      <trkpt lat="48.73662" lon="7.25715">
        <ele>300.15</ele>
        <time>2020-05-21T17:12:59.000Z</time>
      </trkpt>
      <trkpt lat="48.73662" lon="7.25702">
        <ele>300</ele>
        <time>2020-05-21T17:13:01.000Z</time>
      </trkpt>
      <trkpt lat="48.73662" lon="7.25689">
        <ele>298.07</ele>
        <time>2020-05-21T17:13:03.000Z</time>
      </trkpt>
      <trkpt lat="48.73664" lon="7.25677">
        <ele>300.16</ele>
        <time>2020-05-21T17:13:05.000Z</time>
      </trkpt>
      <trkpt lat="48.73666" lon="7.25667">
        <ele>299.68</ele>
        <time>2020-05-21T17:13:07.000Z</time>
      </trkpt>
      <trkpt lat="48.73668" lon="7.25658">
        <ele>299.7</ele>
        <time>2020-05-21T17:13:09.000Z</time>
      </trkpt>
      <trkpt lat="48.7367" lon="7.25649">
        <ele>298.97</ele>
        <time>2020-05-21T17:13:11.000Z</time>
      </trkpt>
      <trkpt lat="48.73672" lon="7.25641">
        <ele>297.83</ele>
        <time>2020-05-21T17:13:13.000Z</time>
      </trkpt>
      <trkpt lat="48.73674" lon="7.25633">
        <ele>284.46</ele>
        <time>2020-05-21T17:13:15.000Z</time>
      </trkpt>
      <trkpt lat="48.73675" lon="7.25626">
        <ele>328.91</ele>
        <time>2020-05-21T17:13:17.000Z</time>
      </trkpt>
      <trkpt lat="48.73676" lon="7.25616">
        <ele>313.35</ele>
        <time>2020-05-21T17:13:19.000Z</time>
      </trkpt>
      <trkpt lat="48.73679" lon="7.25605">
        <ele>307.79</ele>
        <time>2020-05-21T17:13:21.000Z</time>
      </trkpt>
      <trkpt lat="48.73683" lon="7.25593">
        <ele>303.35</ele>
        <time>2020-05-21T17:13:23.000Z</time>
      </trkpt>
      <trkpt lat="48.73685" lon="7.25582">
        <ele>301.8</ele>
        <time>2020-05-21T17:13:25.000Z</time>
      </trkpt>
      <trkpt lat="48.73687" lon="7.2557">
        <ele>299.91</ele>
        <time>2020-05-21T17:13:27.000Z</time>
      </trkpt>
      <trkpt lat="48.73691" lon="7.25558">
        <ele>299.88</ele>
        <time>2020-05-21T17:13:29.000Z</time>
      </trkpt>
      <trkpt lat="48.73692" lon="7.2555">
        <ele>299.27</ele>
        <time>2020-05-21T17:13:30.000Z</time>
      </trkpt>
      <trkpt lat="48.73693" lon="7.25543">
        <ele>298.43</ele>
        <time>2020-05-21T17:13:31.000Z</time>
      </trkpt>
      <trkpt lat="48.73697" lon="7.25532">
        <ele>299.51</ele>
        <time>2020-05-21T17:13:33.000Z</time>
      </trkpt>
      <trkpt lat="48.73698" lon="7.25525">
        <ele>299.67</ele>
        <time>2020-05-21T17:13:34.000Z</time>
      </trkpt>
      <trkpt lat="48.737" lon="7.25517">
        <ele>298.24</ele>
        <time>2020-05-21T17:13:35.000Z</time>
      </trkpt>
      <trkpt lat="48.73711" lon="7.25478">
        <ele>294.74</ele>
        <time>2020-05-21T17:13:42.000Z</time>
      </trkpt>
      <trkpt lat="48.73713" lon="7.25472">
        <ele>294.69</ele>
        <time>2020-05-21T17:13:45.000Z</time>
      </trkpt>
      <trkpt lat="48.73716" lon="7.25465">
        <ele>294.31</ele>
        <time>2020-05-21T17:13:47.000Z</time>
      </trkpt>
      <trkpt lat="48.73712" lon="7.2547">
        <ele>300.27</ele>
        <time>2020-05-21T17:13:57.000Z</time>
      </trkpt>
      <trkpt lat="48.73712" lon="7.25477">
        <ele>298.5</ele>
        <time>2020-05-21T17:14:00.000Z</time>
      </trkpt>
      <trkpt lat="48.73711" lon="7.25488">
        <ele>298.1</ele>
        <time>2020-05-21T17:14:03.000Z</time>
      </trkpt>
    </trkseg>
  </trk>
</gpx>